createdAt,value
2019-03-23T00:00:09.256Z,9.43
2019-03-23T00:02:38.134Z,9.59
2019-03-23T00:05:08.395Z,9.55
2019-03-23T00:07:37.433Z,9.52
2019-03-23T00:10:07.513Z,9.66
2019-03-23T00:12:36.453Z,9.64
2019-03-23T00:15:10.513Z,9.73
2019-03-23T00:17:39.375Z,9.72
2019-03-23T00:20:08.756Z,9.78
2019-03-23T00:22:37.695Z,9.67
2019-03-23T00:25:06.954Z,9.68
2019-03-23T00:27:35.914Z,9.77
2019-03-23T00:30:07.256Z,9.68
2019-03-23T00:32:36.174Z,9.70
2019-03-23T00:35:06.640Z,9.72
2019-03-23T00:37:35.976Z,9.61
2019-03-23T00:40:10.194Z,9.77
2019-03-23T00:42:39.094Z,9.66
2019-03-23T00:45:09.455Z,9.79
2019-03-23T00:47:38.320Z,9.77
2019-03-23T00:50:08.080Z,9.81
2019-03-23T00:52:37.034Z,9.73
2019-03-23T00:55:09.663Z,9.49
2019-03-23T00:57:38.594Z,9.63
2019-03-23T01:00:10.497Z,9.47
2019-03-23T01:02:41.735Z,9.44
2019-03-23T01:05:10.679Z,9.53
2019-03-23T01:07:39.614Z,9.68
2019-03-23T01:10:11.194Z,9.57
2019-03-23T01:12:40.136Z,9.51
2019-03-23T01:15:11.214Z,9.38
2019-03-23T01:17:40.177Z,9.38
2019-03-23T01:20:11.194Z,9.49
2019-03-23T01:22:40.154Z,9.46
2019-03-23T01:25:10.515Z,9.30
2019-03-23T01:27:39.465Z,9.42
2019-03-23T01:30:10.795Z,9.36
2019-03-23T01:32:39.671Z,9.42
2019-03-23T01:35:09.214Z,9.49
2019-03-23T01:37:38.177Z,9.44
2019-03-23T01:40:08.262Z,9.38
2019-03-23T01:42:37.176Z,9.36
2019-03-23T01:45:15.157Z,9.40
2019-03-23T01:47:44.134Z,9.25
2019-03-23T01:50:13.294Z,9.20
2019-03-23T01:52:42.174Z,9.22
2019-03-23T01:55:11.414Z,9.22
2019-03-23T01:57:40.260Z,9.25
2019-03-23T02:00:11.314Z,9.30
2019-03-23T02:02:40.254Z,9.25
2019-03-23T02:05:09.294Z,9.24
2019-03-23T02:07:38.276Z,9.32
2019-03-23T02:10:11.878Z,9.17
2019-03-23T02:12:40.797Z,9.21
2019-03-23T02:15:11.655Z,9.20
2019-03-23T02:17:40.594Z,9.18
2019-03-23T02:20:11.557Z,9.13
2019-03-23T02:22:40.635Z,9.19
2019-03-23T02:25:10.075Z,9.15
2019-03-23T02:27:39.014Z,9.08
2019-03-23T02:30:13.182Z,9.15
2019-03-23T02:32:42.176Z,9.13
2019-03-23T02:35:11.238Z,9.13
2019-03-23T02:37:40.399Z,9.17
2019-03-23T02:40:10.998Z,8.98
2019-03-23T02:42:39.888Z,8.98
2019-03-23T02:45:11.035Z,8.99
2019-03-23T02:47:39.967Z,8.92
2019-03-23T02:50:10.426Z,8.86
2019-03-23T02:52:39.356Z,8.71
2019-03-23T02:55:10.151Z,8.58
2019-03-23T02:57:39.107Z,8.51
2019-03-23T03:00:15.479Z,8.47
2019-03-23T03:02:44.435Z,8.42
2019-03-23T03:05:13.484Z,8.44
2019-03-23T03:07:43.712Z,8.37
2019-03-23T03:10:32.434Z,8.42
2019-03-23T03:13:01.385Z,8.33
2019-03-23T03:15:30.395Z,8.05
2019-03-23T03:17:59.354Z,8.04
2019-03-23T03:20:28.275Z,7.95
2019-03-23T03:22:57.219Z,7.85
2019-03-23T03:25:26.168Z,7.82
2019-03-23T03:27:55.198Z,7.76
2019-03-23T03:30:24.122Z,7.72
2019-03-23T03:32:52.975Z,7.60
2019-03-23T03:35:21.895Z,7.57
2019-03-23T03:37:56.736Z,7.46
2019-03-23T03:40:21.358Z,7.51
2019-03-23T03:42:50.299Z,7.48
2019-03-23T03:45:24.655Z,7.37
2019-03-23T03:47:53.714Z,7.35
2019-03-23T03:50:22.753Z,7.42
2019-03-23T03:52:51.717Z,7.47
2019-03-23T03:55:20.734Z,7.30
2019-03-23T03:57:49.659Z,7.20
2019-03-23T04:00:18.715Z,7.14
2019-03-23T04:02:47.595Z,7.09
2019-03-23T04:05:16.643Z,7.08
2019-03-23T04:07:45.875Z,7.09
2019-03-23T04:10:14.936Z,7.05
2019-03-23T04:12:43.892Z,6.97
2019-03-23T04:15:12.999Z,6.86
2019-03-23T04:17:41.856Z,6.84
2019-03-23T04:20:11.799Z,6.86
2019-03-23T04:22:40.737Z,6.83
2019-03-23T04:25:10.975Z,6.87
2019-03-23T04:27:39.894Z,6.82
2019-03-23T04:30:10.987Z,6.80
2019-03-23T04:32:40.027Z,6.71
2019-03-23T04:35:09.341Z,6.73
2019-03-23T04:37:38.395Z,6.73
2019-03-23T04:40:10.435Z,6.50
2019-03-23T04:42:39.374Z,6.39
2019-03-23T04:45:09.734Z,6.22
2019-03-23T04:47:38.615Z,6.15
2019-03-23T04:50:14.274Z,5.93
2019-03-23T04:52:43.154Z,6.07
2019-03-23T04:55:13.213Z,5.89
2019-03-23T04:57:42.534Z,5.78
2019-03-23T05:00:20.143Z,5.53
2019-03-23T05:02:49.253Z,5.58
2019-03-23T05:05:18.314Z,5.38
2019-03-23T05:07:47.194Z,5.07
2019-03-23T05:10:16.514Z,5.00
2019-03-23T05:12:45.372Z,4.99
2019-03-23T05:15:14.313Z,4.84
2019-03-23T05:17:43.233Z,4.81
2019-03-23T05:20:14.071Z,4.85
2019-03-23T05:22:42.932Z,4.88
2019-03-23T05:25:26.376Z,4.86
2019-03-23T05:27:55.351Z,4.90
2019-03-23T05:30:24.336Z,5.11
2019-03-23T05:32:53.834Z,5.26
2019-03-23T05:35:22.693Z,5.26
2019-03-23T05:37:51.572Z,5.32
2019-03-23T05:40:20.493Z,5.47
2019-03-23T05:42:49.397Z,5.58
2019-03-23T05:45:18.273Z,5.73
2019-03-23T05:47:47.194Z,5.91
2019-03-23T05:50:16.053Z,5.95
2019-03-23T05:52:44.912Z,6.05
2019-03-23T05:55:13.913Z,6.05
2019-03-23T05:57:42.911Z,6.21
2019-03-23T06:00:13.828Z,6.28
2019-03-23T06:02:42.771Z,6.33
2019-03-23T06:05:11.733Z,6.43
2019-03-23T06:07:40.594Z,6.64
2019-03-23T06:10:09.853Z,7.05
2019-03-23T06:12:38.731Z,7.08
2019-03-23T06:15:07.992Z,7.21
2019-03-23T06:17:36.933Z,7.40
2019-03-23T06:20:07.996Z,7.52
2019-03-23T06:22:36.833Z,7.58
2019-03-23T06:25:09.094Z,7.67
2019-03-23T06:27:37.974Z,7.81
2019-03-23T06:30:09.831Z,7.88
2019-03-23T06:32:38.771Z,7.94
2019-03-23T06:35:08.334Z,8.02
2019-03-23T06:37:37.294Z,8.13
2019-03-23T06:40:08.794Z,8.26
2019-03-23T06:42:38.032Z,8.31
2019-03-23T06:45:09.131Z,8.48
2019-03-23T06:47:38.136Z,8.58
2019-03-23T06:50:09.131Z,8.79
2019-03-23T06:52:38.113Z,8.85
2019-03-23T06:55:08.876Z,9.00
2019-03-23T06:57:37.752Z,9.17
2019-03-23T07:00:09.593Z,9.29
2019-03-23T07:02:38.545Z,9.31
2019-03-23T07:05:09.313Z,9.28
2019-03-23T07:07:38.340Z,9.43
2019-03-23T07:10:12.875Z,9.49
2019-03-23T07:12:41.910Z,9.54
2019-03-23T07:15:19.983Z,9.63
2019-03-23T07:17:42.835Z,9.67
2019-03-23T07:20:13.656Z,9.79
2019-03-23T07:22:42.733Z,10.00
2019-03-23T07:25:12.576Z,10.08
2019-03-23T07:27:41.454Z,10.15
2019-03-23T07:30:15.852Z,10.22
2019-03-23T07:32:44.876Z,10.27
2019-03-23T07:35:14.134Z,10.36
2019-03-23T07:37:43.059Z,10.49
2019-03-23T07:40:13.416Z,10.51
2019-03-23T07:42:42.474Z,10.51
2019-03-23T07:45:13.772Z,10.54
2019-03-23T07:47:42.691Z,10.68
2019-03-23T07:50:15.258Z,10.82
2019-03-23T07:52:44.560Z,10.87
2019-03-23T07:55:16.675Z,10.90
2019-03-23T07:57:46.034Z,11.15
2019-03-23T08:00:20.515Z,11.25
2019-03-23T08:02:49.536Z,11.04
2019-03-23T08:05:18.699Z,11.17
2019-03-23T08:07:47.734Z,11.18
2019-03-23T08:10:28.286Z,11.18
2019-03-23T08:12:57.214Z,11.19
2019-03-23T08:15:26.084Z,11.26
2019-03-23T08:17:55.455Z,11.37
2019-03-23T08:20:24.834Z,11.43
2019-03-23T08:22:55.016Z,11.70
2019-03-23T08:25:23.894Z,11.93
2019-03-23T08:27:53.016Z,11.86
2019-03-23T08:30:22.053Z,11.91
2019-03-23T08:32:50.935Z,12.05
2019-03-23T08:35:20.074Z,12.24
2019-03-23T08:37:48.954Z,12.41
2019-03-23T08:40:17.838Z,12.36
2019-03-23T08:42:46.795Z,12.30
2019-03-23T08:45:15.677Z,12.41
2019-03-23T08:47:44.555Z,12.58
2019-03-23T08:50:13.575Z,12.90
2019-03-23T08:52:42.456Z,12.92
2019-03-23T08:55:13.037Z,13.16
2019-03-23T08:57:41.955Z,13.53
2019-03-23T09:00:11.376Z,13.53
2019-03-23T09:02:40.335Z,13.65
2019-03-23T09:05:09.482Z,13.50
2019-03-23T09:07:38.435Z,13.76
2019-03-23T09:10:11.334Z,14.05
2019-03-23T09:12:40.274Z,14.38
2019-03-23T09:15:10.054Z,14.49
2019-03-23T09:17:38.934Z,14.95
2019-03-23T09:20:10.814Z,15.10
2019-03-23T09:22:39.700Z,14.92
2019-03-23T09:25:08.974Z,15.26
2019-03-23T09:27:38.014Z,15.73
2019-03-23T09:30:13.991Z,16.05
2019-03-23T09:32:42.935Z,16.40
2019-03-23T09:35:11.915Z,16.63
2019-03-23T09:37:40.814Z,17.16
2019-03-23T09:40:11.356Z,17.34
2019-03-23T09:42:40.539Z,17.80
2019-03-23T09:45:10.015Z,18.22
2019-03-23T09:47:39.061Z,18.27
2019-03-23T09:50:09.916Z,17.64
2019-03-23T09:52:38.795Z,17.05
2019-03-23T09:55:08.340Z,17.19
2019-03-23T09:57:37.381Z,17.63
2019-03-23T10:00:13.477Z,17.54
2019-03-23T10:02:42.494Z,17.56
2019-03-23T10:05:11.478Z,17.65
2019-03-23T10:07:40.414Z,17.74
2019-03-23T10:10:09.555Z,17.77
2019-03-23T10:12:38.413Z,17.98
2019-03-23T10:15:10.325Z,18.21
2019-03-23T10:17:39.191Z,18.11
2019-03-23T10:20:08.703Z,19.11
2019-03-23T10:22:37.652Z,20.03
2019-03-23T10:25:08.331Z,20.45
2019-03-23T10:27:37.196Z,21.13
2019-03-23T10:30:11.443Z,21.21
2019-03-23T10:32:40.345Z,21.42
2019-03-23T10:35:09.793Z,21.69
2019-03-23T10:37:38.745Z,22.19
2019-03-23T10:40:10.082Z,22.83
2019-03-23T10:42:39.032Z,23.54
2019-03-23T10:45:09.114Z,23.84
2019-03-23T10:47:38.027Z,23.95
2019-03-23T10:50:08.012Z,23.67
2019-03-23T10:52:36.971Z,24.42
2019-03-23T10:55:08.731Z,25.10
2019-03-23T10:57:37.681Z,24.40
2019-03-23T11:00:12.253Z,23.13
2019-03-23T11:02:41.140Z,22.74
2019-03-23T11:05:10.501Z,22.31
2019-03-23T11:07:39.561Z,21.51
2019-03-23T11:10:13.495Z,22.53
2019-03-23T11:12:42.646Z,22.69
2019-03-23T11:15:12.121Z,23.25
2019-03-23T11:17:40.994Z,24.36
2019-03-23T11:20:12.560Z,24.04
2019-03-23T11:22:41.577Z,22.75
2019-03-23T11:25:10.752Z,23.45
2019-03-23T11:27:39.629Z,24.06
2019-03-23T11:30:11.311Z,25.23
2019-03-23T11:32:40.277Z,26.46
2019-03-23T11:35:09.352Z,25.26
2019-03-23T11:37:38.626Z,25.11
2019-03-23T11:40:10.373Z,24.61
2019-03-23T11:42:49.270Z,25.28
2019-03-23T11:45:11.975Z,25.96
2019-03-23T11:47:40.833Z,26.75
2019-03-23T11:50:10.603Z,27.42
2019-03-23T11:52:39.704Z,27.93
2019-03-23T11:55:09.152Z,28.38
2019-03-23T11:57:38.011Z,28.86
2019-03-23T12:00:09.192Z,29.30
2019-03-23T12:02:38.076Z,29.52
2019-03-23T12:05:08.693Z,29.55
2019-03-23T12:07:37.711Z,29.70
2019-03-23T12:10:11.441Z,29.72
2019-03-23T12:12:40.499Z,29.74
2019-03-23T12:15:12.073Z,29.60
2019-03-23T12:17:40.953Z,27.44
2019-03-23T12:20:10.313Z,28.13
2019-03-23T12:22:39.357Z,28.79
2019-03-23T12:25:08.675Z,29.34
2019-03-23T12:27:37.533Z,29.69
2019-03-23T12:30:09.115Z,29.99
2019-03-23T12:32:37.991Z,29.82
2019-03-23T12:35:08.553Z,29.96
2019-03-23T12:37:37.452Z,30.34
2019-03-23T12:40:08.053Z,30.61
2019-03-23T12:42:37.011Z,31.06
2019-03-23T12:45:07.792Z,31.45
2019-03-23T12:47:36.691Z,31.17
2019-03-23T12:50:09.811Z,31.33
2019-03-23T12:52:39.131Z,31.15
2019-03-23T12:55:08.293Z,31.00
2019-03-23T12:57:37.214Z,31.02
2019-03-23T13:00:09.313Z,30.94
2019-03-23T13:02:38.191Z,31.39
2019-03-23T13:05:08.441Z,31.66
2019-03-23T13:07:37.352Z,30.53
2019-03-23T13:10:13.981Z,29.53
2019-03-23T13:12:43.015Z,30.13
2019-03-23T13:15:14.411Z,30.73
2019-03-23T13:17:43.453Z,31.26
2019-03-23T13:20:12.881Z,31.69
2019-03-23T13:22:41.734Z,31.80
2019-03-23T13:25:11.062Z,32.25
2019-03-23T13:27:42.138Z,32.25
2019-03-23T13:30:13.515Z,32.18
2019-03-23T13:32:42.553Z,32.49
2019-03-23T13:35:12.412Z,32.49
2019-03-23T13:37:41.411Z,32.53
2019-03-23T13:40:12.322Z,32.31
2019-03-23T13:42:41.191Z,32.33
2019-03-23T13:45:11.271Z,32.51
2019-03-23T13:47:41.000Z,32.56
2019-03-23T13:50:11.431Z,32.55
2019-03-23T13:52:40.392Z,32.42
2019-03-23T13:55:13.126Z,32.53
2019-03-23T13:57:42.073Z,32.56
2019-03-23T14:00:11.321Z,32.73
2019-03-23T14:02:40.233Z,33.09
2019-03-23T14:05:16.125Z,33.09
2019-03-23T14:07:39.771Z,33.02
2019-03-23T14:10:08.993Z,33.04
2019-03-23T14:12:37.851Z,32.97
2019-03-23T14:15:07.411Z,32.97
2019-03-23T14:17:36.460Z,32.94
2019-03-23T14:20:06.722Z,32.94
2019-03-23T14:22:35.692Z,32.90
2019-03-23T14:25:06.932Z,31.65
2019-03-23T14:27:35.792Z,31.65
2019-03-23T14:30:08.973Z,31.59
2019-03-23T14:32:37.872Z,31.73
2019-03-23T14:35:07.453Z,31.74
2019-03-23T14:37:36.491Z,31.74
2019-03-23T14:40:06.994Z,30.73
2019-03-23T14:42:36.772Z,30.51
2019-03-23T14:45:08.510Z,30.59
2019-03-23T14:47:37.423Z,30.80
2019-03-23T14:50:07.156Z,31.09
2019-03-23T14:52:36.009Z,30.89
2019-03-23T14:55:06.561Z,30.89
2019-03-23T14:57:35.419Z,29.14
2019-03-23T15:00:09.221Z,28.54
2019-03-23T15:02:37.377Z,27.09
2019-03-23T15:05:08.324Z,26.58
2019-03-23T15:07:38.011Z,25.60
2019-03-23T15:10:10.007Z,24.89
2019-03-23T15:12:39.033Z,23.79
2019-03-23T15:15:08.547Z,24.30
2019-03-23T15:17:37.500Z,24.45
2019-03-23T15:20:07.063Z,24.18
2019-03-23T15:22:36.005Z,24.12
2019-03-23T15:25:08.958Z,24.02
2019-03-23T15:27:37.807Z,24.11
2019-03-23T15:30:08.092Z,24.08
2019-03-23T15:32:37.013Z,23.87
2019-03-23T15:35:07.943Z,23.70
2019-03-23T15:37:36.812Z,23.34
2019-03-23T15:40:07.703Z,23.31
2019-03-23T15:42:36.575Z,23.08
2019-03-23T15:45:09.148Z,23.43
2019-03-23T15:47:38.153Z,23.55
2019-03-23T15:50:07.501Z,23.39
2019-03-23T15:52:36.431Z,22.98
2019-03-23T15:55:07.283Z,22.96
2019-03-23T15:57:36.840Z,22.69
2019-03-23T16:00:08.646Z,22.76
2019-03-23T16:02:37.681Z,22.93
2019-03-23T16:05:07.531Z,23.07
2019-03-23T16:07:36.780Z,23.17
2019-03-23T16:10:09.489Z,23.45
2019-03-23T16:12:38.332Z,23.55
2019-03-23T16:15:12.154Z,23.54
2019-03-23T16:17:41.216Z,23.62
2019-03-23T16:20:11.933Z,23.64
2019-03-23T16:22:40.891Z,23.69
2019-03-23T16:25:10.913Z,23.31
2019-03-23T16:27:40.041Z,23.12
2019-03-23T16:30:11.312Z,23.04
2019-03-23T16:32:40.213Z,22.83
2019-03-23T16:35:09.513Z,22.72
2019-03-23T16:37:38.390Z,22.58
2019-03-23T16:40:09.496Z,22.39
2019-03-23T16:42:45.151Z,22.17
2019-03-23T16:45:11.174Z,21.66
2019-03-23T16:47:40.293Z,21.43
2019-03-23T16:50:09.974Z,21.21
2019-03-23T16:52:39.654Z,21.03
2019-03-23T16:55:09.733Z,20.78
2019-03-23T16:57:38.894Z,20.44
2019-03-23T17:00:10.512Z,20.04
2019-03-23T17:02:39.782Z,19.80
2019-03-23T17:05:09.054Z,19.38
2019-03-23T17:07:38.133Z,19.11
2019-03-23T17:10:07.872Z,18.94
2019-03-23T17:12:37.051Z,18.47
2019-03-23T17:15:09.611Z,18.21
2019-03-23T17:17:38.854Z,17.89
2019-03-23T17:20:08.211Z,18.05
2019-03-23T17:22:37.252Z,17.83
2019-03-23T17:25:07.538Z,17.58
2019-03-23T17:27:36.612Z,17.18
2019-03-23T17:30:07.571Z,16.86
2019-03-23T17:32:37.801Z,16.74
2019-03-23T17:35:08.051Z,16.63
2019-03-23T17:37:37.084Z,16.59
2019-03-23T17:40:08.121Z,16.37
2019-03-23T17:42:37.182Z,16.22
2019-03-23T17:45:07.901Z,16.11
2019-03-23T17:47:37.221Z,16.06
2019-03-23T17:50:06.741Z,15.99
2019-03-23T17:52:35.881Z,16.12
2019-03-23T17:55:07.503Z,16.27
2019-03-23T17:57:36.560Z,16.15
2019-03-23T18:00:08.733Z,16.05
2019-03-23T18:02:38.353Z,16.03
2019-03-23T18:05:08.814Z,15.89
2019-03-23T18:07:37.972Z,15.76
2019-03-23T18:10:08.733Z,15.48
2019-03-23T18:12:37.866Z,15.35
2019-03-23T18:15:08.693Z,15.25
2019-03-23T18:17:37.915Z,15.19
2019-03-23T18:20:08.692Z,15.16
2019-03-23T18:22:37.854Z,14.66
2019-03-23T18:25:07.701Z,14.35
2019-03-23T18:27:36.834Z,14.26
2019-03-23T18:30:08.693Z,14.04
2019-03-23T18:32:37.934Z,14.15
2019-03-23T18:35:07.831Z,14.08
2019-03-23T18:37:37.001Z,13.97
2019-03-23T18:40:08.272Z,13.87
2019-03-23T18:42:37.641Z,13.45
2019-03-23T18:45:07.592Z,13.57
2019-03-23T18:47:36.703Z,13.53
2019-03-23T18:50:07.291Z,13.50
2019-03-23T18:52:36.460Z,13.35
2019-03-23T18:55:07.374Z,13.13
2019-03-23T18:57:36.457Z,12.73
2019-03-23T19:00:07.591Z,12.57
2019-03-23T19:02:36.832Z,12.44
2019-03-23T19:05:06.611Z,12.25
2019-03-23T19:07:35.772Z,12.05
2019-03-23T19:10:06.514Z,11.91
2019-03-23T19:12:35.702Z,12.08
2019-03-23T19:15:07.822Z,12.31
2019-03-23T19:17:37.131Z,12.21
2019-03-23T19:20:09.001Z,12.19
2019-03-23T19:22:38.133Z,12.25
2019-03-23T19:25:15.910Z,12.37
2019-03-23T19:27:38.253Z,12.29
2019-03-23T19:30:09.911Z,11.94
2019-03-23T19:32:39.183Z,11.56
2019-03-23T19:35:08.381Z,11.40
2019-03-23T19:37:38.895Z,11.45
2019-03-23T19:40:08.171Z,11.56
2019-03-23T19:42:37.332Z,11.87
2019-03-23T19:45:07.611Z,11.73
2019-03-23T19:47:36.755Z,11.57
2019-03-23T19:50:07.922Z,11.33
2019-03-23T19:52:37.071Z,11.02
2019-03-23T19:55:08.361Z,11.00
2019-03-23T19:57:37.610Z,10.99
2019-03-23T20:00:12.033Z,10.89
2019-03-23T20:02:41.161Z,10.71
2019-03-23T20:05:10.392Z,10.59
2019-03-23T20:07:39.640Z,10.52
2019-03-23T20:10:10.162Z,10.55
2019-03-23T20:12:39.323Z,10.27
2019-03-23T20:15:09.542Z,10.10
2019-03-23T20:17:38.774Z,9.92
2019-03-23T20:20:09.002Z,9.87
2019-03-23T20:22:38.321Z,9.83
2019-03-23T20:25:07.963Z,9.72
2019-03-23T20:27:37.017Z,9.59
2019-03-23T20:30:11.640Z,9.61
2019-03-23T20:32:40.841Z,9.69
2019-03-23T20:35:10.292Z,9.69
2019-03-23T20:37:39.371Z,9.57
2019-03-23T20:40:09.595Z,9.49
2019-03-23T20:42:38.733Z,9.21
2019-03-23T20:45:09.211Z,9.27
2019-03-23T20:47:40.953Z,9.50
2019-03-23T20:50:10.711Z,9.45
2019-03-23T20:52:40.671Z,9.46
2019-03-23T20:55:15.533Z,9.46
2019-03-23T20:57:44.691Z,9.56
2019-03-23T21:00:13.833Z,9.39
2019-03-23T21:02:43.054Z,9.61
2019-03-23T21:05:12.122Z,9.63
2019-03-23T21:07:41.181Z,9.65
2019-03-23T21:10:10.493Z,9.76
2019-03-23T21:12:39.573Z,9.89
2019-03-23T21:15:08.813Z,9.80
2019-03-23T21:17:50.413Z,10.03
2019-03-23T21:20:09.019Z,9.96
2019-03-23T21:22:38.204Z,10.05
2019-03-23T21:25:08.073Z,10.02
2019-03-23T21:27:37.155Z,9.97
2019-03-23T21:30:09.028Z,9.88
2019-03-23T21:32:38.178Z,9.80
2019-03-23T21:35:07.432Z,10.05
2019-03-23T21:37:36.626Z,10.65
2019-03-23T21:40:07.348Z,10.99
2019-03-23T21:42:36.628Z,11.23
2019-03-23T21:45:07.678Z,11.45
2019-03-23T21:47:36.827Z,11.63
2019-03-23T21:50:08.916Z,11.77
2019-03-23T21:52:38.080Z,11.82
2019-03-23T21:55:08.310Z,11.90
2019-03-23T21:57:37.548Z,11.93
2019-03-23T22:00:08.518Z,12.00
2019-03-23T22:02:37.667Z,11.96
2019-03-23T22:05:08.194Z,11.94
2019-03-23T22:07:37.435Z,11.96
2019-03-23T22:10:07.597Z,11.95
2019-03-23T22:12:36.867Z,11.91
2019-03-23T22:15:09.348Z,11.88
2019-03-23T22:17:38.434Z,11.84
2019-03-23T22:20:08.636Z,11.80
2019-03-23T22:22:37.665Z,11.77
2019-03-23T22:25:07.910Z,11.74
2019-03-23T22:27:37.949Z,11.69
2019-03-23T22:30:12.559Z,11.52
2019-03-23T22:32:41.469Z,11.28
2019-03-23T22:35:10.866Z,11.16
2019-03-23T22:37:39.842Z,10.96
2019-03-23T22:40:10.266Z,11.01
2019-03-23T22:42:39.187Z,10.94
2019-03-23T22:45:10.266Z,10.88
2019-03-23T22:47:39.308Z,10.81
2019-03-23T22:50:09.069Z,10.69
2019-03-23T22:52:38.147Z,10.55
2019-03-23T22:55:08.666Z,10.52
2019-03-23T22:57:37.710Z,10.41
2019-03-23T23:00:13.994Z,10.38
2019-03-23T23:02:43.066Z,10.35
2019-03-23T23:05:12.226Z,10.24
2019-03-23T23:07:41.346Z,10.07
2019-03-23T23:10:10.506Z,9.88
2019-03-23T23:12:39.546Z,9.73
2019-03-23T23:15:08.746Z,9.52
2019-03-23T23:17:37.787Z,9.37
2019-03-23T23:20:08.035Z,9.20
2019-03-23T23:22:37.106Z,9.20
2019-03-23T23:25:07.427Z,9.13
2019-03-23T23:27:36.717Z,9.11
2019-03-23T23:30:08.116Z,9.09
2019-03-23T23:32:37.155Z,9.11
2019-03-23T23:35:08.548Z,9.00
2019-03-23T23:37:37.668Z,8.95
2019-03-23T23:40:08.189Z,8.90
2019-03-23T23:42:37.229Z,8.83
2019-03-23T23:45:15.202Z,8.84
2019-03-23T23:47:40.435Z,8.84
2019-03-23T23:50:09.595Z,8.81
2019-03-23T23:52:38.708Z,8.72
2019-03-23T23:55:07.868Z,8.62
2019-03-23T23:57:36.907Z,8.60
